Hawkesbury, Canada
Current Conditions -  °F | °C
As of 4:00 AM on Sunday 26 Oct 2014 (Local Time) from CYMX Reporting Station
Overcast Overcast  
Wind Chill:   Ceiling: 10000
Heat Index:   Visibility: 25mi
Dew Point:   Wind: 5mph
Humidity: 100%   Direction: 270°W
Pressure: 29.41"   Gusts: NA
Location:  45.61°N, 74.61°W
Report Text: CYMX 260800Z 27004KT 230V320 25SM FEW006 FEW020 FEW050 OVC100 07/07 A2941 RMK SF1SC1SC1AC7 SF TR SC TR SLP959
Loading
Personal Weather Stations






























Interactive Weather Map
Tropical Storm Tracking
New forecast layout! Learn more

10-Day Weather Forecast

Advertisements
Track Severe Weather on mobile